createdAt,value
2023-01-17T00:01:13.635Z,10.92
2023-01-17T00:03:59.028Z,11.23
2023-01-17T00:06:44.649Z,11.15
2023-01-17T00:09:31.010Z,10.74
2023-01-17T00:11:59.102Z,9.84
2023-01-17T00:14:27.263Z,9.81
2023-01-17T00:16:54.320Z,10.09
2023-01-17T00:19:41.084Z,10.91
2023-01-17T00:22:30.873Z,11.19
2023-01-17T00:25:15.959Z,10.73
2023-01-17T00:27:45.263Z,11.25
2023-01-17T00:30:14.637Z,11.56
2023-01-17T00:32:41.092Z,10.96
2023-01-17T00:35:07.869Z,11.37
2023-01-17T00:37:34.804Z,11.36
2023-01-17T00:40:02.698Z,11.67
2023-01-17T00:42:29.144Z,11.63
2023-01-17T00:45:14.091Z,11.75
2023-01-17T00:47:59.343Z,11.51
2023-01-17T00:50:44.433Z,11.46
2023-01-17T00:53:29.239Z,11.43
2023-01-17T00:56:14.511Z,10.90
2023-01-17T00:58:59.596Z,11.19
2023-01-17T01:01:44.816Z,10.71
2023-01-17T01:04:30.066Z,10.73
2023-01-17T01:07:15.411Z,11.14
2023-01-17T01:10:00.743Z,11.24
2023-01-17T01:12:45.733Z,10.90
2023-01-17T01:15:30.694Z,11.12
2023-01-17T01:18:15.425Z,10.96
2023-01-17T01:21:00.463Z,10.33
2023-01-17T01:23:45.590Z,10.89
2023-01-17T01:26:30.353Z,10.33
2023-01-17T01:29:15.557Z,10.49
2023-01-17T01:32:00.870Z,10.94
2023-01-17T01:34:27.613Z,10.40
2023-01-17T01:36:55.399Z,10.70
2023-01-17T01:39:22.157Z,10.70
2023-01-17T01:41:48.891Z,10.59
2023-01-17T01:44:34.749Z,10.71
2023-01-17T01:47:01.148Z,10.64
2023-01-17T01:49:29.563Z,10.73
2023-01-17T01:51:58.987Z,10.60
2023-01-17T01:54:27.277Z,10.68
2023-01-17T01:56:54.710Z,10.60
2023-01-17T01:59:22.877Z,10.46
2023-01-17T02:01:51.757Z,10.56
2023-01-17T02:04:19.220Z,10.56
2023-01-17T02:06:54.081Z,10.71
2023-01-17T02:09:20.751Z,10.06
2023-01-17T02:11:49.060Z,10.34
2023-01-17T02:14:16.779Z,10.87
2023-01-17T02:16:46.564Z,10.94
2023-01-17T02:19:25.080Z,10.87
2023-01-17T02:22:18.055Z,11.01
2023-01-17T02:24:56.685Z,10.79
2023-01-17T02:27:23.231Z,10.85
2023-01-17T02:29:52.626Z,11.06
2023-01-17T02:32:31.873Z,11.09
2023-01-17T02:35:01.680Z,10.91
2023-01-17T02:37:33.963Z,10.92
2023-01-17T02:40:06.737Z,10.45
2023-01-17T02:42:42.863Z,10.87
2023-01-17T02:45:14.696Z,11.00
2023-01-17T02:47:41.277Z,10.69
2023-01-17T02:50:10.167Z,10.87
2023-01-17T02:52:55.605Z,11.05
2023-01-17T02:55:32.250Z,11.14
2023-01-17T02:58:17.856Z,11.37
2023-01-17T03:01:03.114Z,11.15
2023-01-17T03:03:38.746Z,11.03
2023-01-17T03:06:25.677Z,10.89
2023-01-17T03:08:54.291Z,10.69
2023-01-17T03:11:21.119Z,10.99
2023-01-17T03:13:47.841Z,10.77
2023-01-17T03:16:17.423Z,11.17
2023-01-17T03:18:45.777Z,11.01
2023-01-17T03:21:12.318Z,10.94
2023-01-17T03:23:40.272Z,11.21
2023-01-17T03:26:06.715Z,10.95
2023-01-17T03:28:33.238Z,11.14
2023-01-17T03:31:00.036Z,11.28
2023-01-17T03:33:26.700Z,11.46
2023-01-17T03:35:54.555Z,11.47
2023-01-17T03:38:21.313Z,11.54
2023-01-17T03:40:47.946Z,11.54
2023-01-17T03:43:14.768Z,11.51
2023-01-17T03:45:41.571Z,11.22
2023-01-17T03:48:08.172Z,11.08
2023-01-17T03:50:34.913Z,11.22
2023-01-17T03:53:01.638Z,11.47
2023-01-17T03:55:28.399Z,11.15
2023-01-17T03:57:55.197Z,11.01
2023-01-17T04:00:21.851Z,10.90
2023-01-17T04:02:48.968Z,11.32
2023-01-17T04:05:15.670Z,10.80
2023-01-17T04:07:42.238Z,10.95
2023-01-17T04:10:09.183Z,11.21
2023-01-17T04:12:35.735Z,11.20
2023-01-17T04:15:02.499Z,10.49
2023-01-17T04:17:29.250Z,11.12
2023-01-17T04:19:56.125Z,11.17
2023-01-17T04:22:22.823Z,11.19
2023-01-17T04:24:49.411Z,11.43
2023-01-17T04:27:15.929Z,11.26
2023-01-17T04:29:42.289Z,11.29
2023-01-17T04:32:08.924Z,11.04
2023-01-17T04:34:35.257Z,11.04
2023-01-17T04:37:03.211Z,11.19
2023-01-17T04:39:32.813Z,11.38
2023-01-17T04:41:59.503Z,11.14
2023-01-17T04:44:26.259Z,10.94
2023-01-17T04:46:52.775Z,11.04
2023-01-17T04:49:19.292Z,10.93
2023-01-17T04:51:45.827Z,10.89
2023-01-17T04:54:12.333Z,9.96
2023-01-17T04:56:38.851Z,9.96
2023-01-17T04:59:05.506Z,9.78
2023-01-17T05:01:32.398Z,9.74
2023-01-17T05:03:59.276Z,9.23
2023-01-17T05:06:27.296Z,9.74
2023-01-17T05:08:53.869Z,9.56
2023-01-17T05:11:20.497Z,9.33
2023-01-17T05:13:47.966Z,10.19
2023-01-17T05:16:14.685Z,9.02
2023-01-17T05:18:41.237Z,9.85
2023-01-17T05:21:07.769Z,9.72
2023-01-17T05:23:34.329Z,9.79
2023-01-17T05:26:00.886Z,9.46
2023-01-17T05:28:27.399Z,9.06
2023-01-17T05:30:54.088Z,9.34
2023-01-17T05:33:20.898Z,9.25
2023-01-17T05:35:47.577Z,9.42
2023-01-17T05:38:14.359Z,9.37
2023-01-17T05:40:40.809Z,9.63
2023-01-17T05:43:10.044Z,9.17
2023-01-17T05:45:37.065Z,8.49
2023-01-17T05:48:06.883Z,9.33
2023-01-17T05:50:38.035Z,9.12
2023-01-17T05:53:06.432Z,9.08
2023-01-17T05:55:33.235Z,9.84
2023-01-17T05:58:00.480Z,10.12
2023-01-17T06:00:27.420Z,9.95
2023-01-17T06:02:55.159Z,10.09
2023-01-17T06:05:22.956Z,9.79
2023-01-17T06:07:50.058Z,9.89
2023-01-17T06:10:17.739Z,9.28
2023-01-17T06:12:44.716Z,9.65
2023-01-17T06:15:14.439Z,9.98
2023-01-17T06:17:41.766Z,9.37
2023-01-17T06:20:08.980Z,8.70
2023-01-17T06:22:36.131Z,9.09
2023-01-17T06:25:04.047Z,8.79
2023-01-17T06:27:30.897Z,8.40
2023-01-17T06:29:57.479Z,7.84
2023-01-17T06:32:24.119Z,7.53
2023-01-17T06:34:50.874Z,8.20
2023-01-17T06:37:17.406Z,7.95
2023-01-17T06:39:43.979Z,7.77
2023-01-17T06:42:10.794Z,8.08
2023-01-17T06:44:37.766Z,8.03
2023-01-17T06:47:04.447Z,7.69
2023-01-17T06:49:31.180Z,7.40
2023-01-17T06:51:57.682Z,7.37
2023-01-17T06:54:24.170Z,6.93
2023-01-17T06:56:50.649Z,6.71
2023-01-17T06:59:17.176Z,6.07
2023-01-17T07:01:44.041Z,6.89
2023-01-17T07:04:10.818Z,6.37
2023-01-17T07:06:37.273Z,6.31
2023-01-17T07:09:04.482Z,6.02
2023-01-17T07:11:31.147Z,7.91
2023-01-17T07:13:57.594Z,6.76
2023-01-17T07:16:24.664Z,7.08
2023-01-17T07:18:51.812Z,6.88
2023-01-17T07:21:19.122Z,6.54
2023-01-17T07:23:46.115Z,6.40
2023-01-17T07:26:12.510Z,6.22
2023-01-17T07:28:39.312Z,5.98
2023-01-17T07:31:07.583Z,6.37
2023-01-17T07:33:34.368Z,7.06
2023-01-17T07:36:08.108Z,6.70
2023-01-17T07:38:35.078Z,7.66
2023-01-17T07:41:01.948Z,8.05
2023-01-17T07:43:28.638Z,6.96
2023-01-17T07:45:55.165Z,7.98
2023-01-17T07:48:22.905Z,8.43
2023-01-17T07:50:56.440Z,8.77
2023-01-17T07:53:24.455Z,8.48
2023-01-17T07:55:50.968Z,8.14
2023-01-17T07:58:17.412Z,8.19
2023-01-17T08:00:46.886Z,8.81
2023-01-17T08:03:16.552Z,8.51
2023-01-17T08:05:43.943Z,8.31
2023-01-17T08:08:10.444Z,8.23
2023-01-17T08:10:37.072Z,7.74
2023-01-17T08:13:03.656Z,8.71
2023-01-17T08:15:30.530Z,8.33
2023-01-17T08:17:58.688Z,8.53
2023-01-17T08:20:27.807Z,8.49
2023-01-17T08:22:56.425Z,7.79
2023-01-17T08:25:27.924Z,8.25
2023-01-17T08:27:58.120Z,8.83
2023-01-17T08:30:24.691Z,8.62
2023-01-17T08:32:51.395Z,8.38
2023-01-17T08:35:20.204Z,8.21
2023-01-17T08:37:47.585Z,8.46
2023-01-17T08:40:19.304Z,9.29
2023-01-17T08:42:53.444Z,8.72
2023-01-17T08:45:19.997Z,9.72
2023-01-17T08:47:46.519Z,8.81
2023-01-17T08:50:13.030Z,8.57
2023-01-17T08:52:39.674Z,8.78
2023-01-17T08:55:06.528Z,8.96
2023-01-17T08:57:33.076Z,8.61
2023-01-17T08:59:59.799Z,9.06
2023-01-17T09:02:26.632Z,8.59
2023-01-17T09:04:53.786Z,8.40
2023-01-17T09:07:20.755Z,8.18
2023-01-17T09:09:47.517Z,8.89
2023-01-17T09:12:14.136Z,8.55
2023-01-17T09:14:40.605Z,8.76
2023-01-17T09:17:07.119Z,9.19
2023-01-17T09:19:33.721Z,8.49
2023-01-17T09:22:00.125Z,8.63
2023-01-17T09:24:27.011Z,9.40
2023-01-17T09:26:53.547Z,10.26
2023-01-17T09:29:20.131Z,8.43
2023-01-17T09:31:48.305Z,9.25
2023-01-17T09:34:14.686Z,9.61
2023-01-17T09:36:41.586Z,8.79
2023-01-17T09:39:10.183Z,9.32
2023-01-17T09:41:57.137Z,9.80
2023-01-17T09:44:23.990Z,8.93
2023-01-17T09:46:52.498Z,9.48
2023-01-17T09:49:41.226Z,8.65
2023-01-17T09:52:08.870Z,9.67
2023-01-17T09:54:37.869Z,8.75
2023-01-17T09:57:07.374Z,8.36
2023-01-17T09:59:35.841Z,8.50
2023-01-17T10:02:27.105Z,8.24
2023-01-17T10:05:11.564Z,8.15
2023-01-17T10:07:38.632Z,7.62
2023-01-17T10:10:06.582Z,7.23
2023-01-17T10:12:45.144Z,8.26
2023-01-17T10:15:17.755Z,7.03
2023-01-17T10:18:00.116Z,7.27
2023-01-17T10:20:34.774Z,7.50
2023-01-17T10:23:22.102Z,7.13
2023-01-17T10:25:52.531Z,7.06
2023-01-17T10:28:34.622Z,7.79
2023-01-17T10:31:06.056Z,7.53
2023-01-17T10:33:46.018Z,8.11
2023-01-17T10:36:15.535Z,7.90
2023-01-17T10:38:45.761Z,8.16
2023-01-17T10:41:15.238Z,8.51
2023-01-17T10:44:17.140Z,8.19
2023-01-17T10:46:58.612Z,9.02
2023-01-17T10:49:26.040Z,8.78
2023-01-17T10:52:08.478Z,8.85
2023-01-17T10:54:38.855Z,8.91
2023-01-17T10:57:05.246Z,8.31
2023-01-17T10:59:33.611Z,9.51
2023-01-17T11:02:00.406Z,9.35
2023-01-17T11:04:37.961Z,8.96
2023-01-17T11:07:19.806Z,8.80
2023-01-17T11:09:47.401Z,9.16
2023-01-17T11:12:20.015Z,9.60
2023-01-17T11:14:58.523Z,9.52
2023-01-17T11:17:27.531Z,9.06
2023-01-17T11:19:54.664Z,9.33
2023-01-17T11:22:21.087Z,9.89
2023-01-17T11:24:49.788Z,9.53
2023-01-17T11:27:25.453Z,8.55
2023-01-17T11:30:15.794Z,8.92
2023-01-17T11:32:55.388Z,9.09
2023-01-17T11:35:31.058Z,9.34
2023-01-17T11:38:05.347Z,8.93
2023-01-17T11:40:36.017Z,8.51
2023-01-17T11:43:12.473Z,8.85
2023-01-17T11:45:39.434Z,9.64
2023-01-17T11:48:08.774Z,8.89
2023-01-17T11:50:37.493Z,7.71
2023-01-17T11:53:07.008Z,8.95
2023-01-17T11:55:33.585Z,9.16
2023-01-17T11:58:00.584Z,9.59
2023-01-17T12:00:33.575Z,9.72
2023-01-17T12:03:23.531Z,9.15
2023-01-17T12:06:01.261Z,9.50
2023-01-17T12:08:51.320Z,9.96
2023-01-17T12:11:28.462Z,10.28
2023-01-17T12:14:01.921Z,9.96
2023-01-17T12:16:43.964Z,10.47
2023-01-17T12:19:25.583Z,10.37
2023-01-17T12:22:10.654Z,10.10
2023-01-17T12:24:50.668Z,9.77
2023-01-17T12:27:30.165Z,9.20
2023-01-17T12:30:05.672Z,9.88
2023-01-17T12:32:40.652Z,10.03
2023-01-17T12:35:13.187Z,9.47
2023-01-17T12:37:52.664Z,8.82
2023-01-17T12:40:37.190Z,10.04
2023-01-17T12:43:08.007Z,9.87
2023-01-17T12:45:44.955Z,10.43
2023-01-17T12:48:12.778Z,9.92
2023-01-17T12:50:41.451Z,9.85
2023-01-17T12:53:21.211Z,10.40
2023-01-17T12:55:53.779Z,9.21
2023-01-17T12:58:21.524Z,9.86
2023-01-17T13:00:51.612Z,9.90
2023-01-17T13:03:27.268Z,8.69
2023-01-17T13:05:55.475Z,9.34
2023-01-17T13:08:39.111Z,8.80
2023-01-17T13:11:13.053Z,10.28
2023-01-17T13:13:41.275Z,9.26
2023-01-17T13:16:08.031Z,9.55
2023-01-17T13:18:35.609Z,9.03
2023-01-17T13:21:11.051Z,9.50
2023-01-17T13:23:46.689Z,9.66
2023-01-17T13:26:31.959Z,8.54
2023-01-17T13:29:07.262Z,8.10
2023-01-17T13:31:36.858Z,8.53
2023-01-17T13:34:09.321Z,8.78
2023-01-17T13:36:54.694Z,7.67
2023-01-17T13:39:24.186Z,9.08
2023-01-17T13:41:53.178Z,8.84
2023-01-17T13:44:22.855Z,8.63
2023-01-17T13:46:58.633Z,8.28
2023-01-17T13:49:34.372Z,8.69
2023-01-17T13:52:12.119Z,8.82
2023-01-17T13:54:47.781Z,8.66
2023-01-17T13:57:24.490Z,9.24
2023-01-17T13:59:51.582Z,8.85
2023-01-17T14:02:33.179Z,9.58
2023-01-17T14:05:17.418Z,9.85
2023-01-17T14:07:49.565Z,10.24
2023-01-17T14:10:30.423Z,9.92
2023-01-17T14:12:57.189Z,10.24
2023-01-17T14:15:27.017Z,10.38
2023-01-17T14:17:56.481Z,10.59
2023-01-17T14:20:26.277Z,10.11
2023-01-17T14:22:57.937Z,9.69
2023-01-17T14:25:40.852Z,8.62
2023-01-17T14:28:21.808Z,8.53
2023-01-17T14:30:54.188Z,8.55
2023-01-17T14:33:25.119Z,8.94
2023-01-17T14:35:56.137Z,8.69
2023-01-17T14:38:24.098Z,8.70
2023-01-17T14:40:52.649Z,8.25
2023-01-17T14:43:20.605Z,8.73
2023-01-17T14:45:47.593Z,9.08
2023-01-17T14:48:21.473Z,8.58
2023-01-17T14:50:48.897Z,8.98
2023-01-17T14:53:31.440Z,9.00
2023-01-17T14:55:59.734Z,9.60
2023-01-17T14:58:28.924Z,9.57
2023-01-17T15:00:57.799Z,9.38
2023-01-17T15:03:24.712Z,9.76
2023-01-17T15:05:52.848Z,9.24
2023-01-17T15:08:21.174Z,9.54
2023-01-17T15:10:56.192Z,9.65
2023-01-17T15:13:35.587Z,9.37
2023-01-17T15:16:07.246Z,8.39
2023-01-17T15:18:37.763Z,6.95
2023-01-17T15:21:06.285Z,8.29
2023-01-17T15:23:34.986Z,7.35
2023-01-17T15:26:03.304Z,8.46
2023-01-17T15:28:30.328Z,8.28
2023-01-17T15:31:09.183Z,8.12
2023-01-17T15:33:40.132Z,8.35
2023-01-17T15:36:08.671Z,8.63
2023-01-17T15:38:40.285Z,8.62
2023-01-17T15:41:11.770Z,9.16
2023-01-17T15:43:39.693Z,9.02
2023-01-17T15:46:06.485Z,8.85
2023-01-17T15:48:44.369Z,8.97
2023-01-17T15:51:12.235Z,8.98
2023-01-17T15:53:41.104Z,8.67
2023-01-17T15:56:20.359Z,8.76
2023-01-17T15:58:50.728Z,9.18
2023-01-17T16:01:23.840Z,9.00
2023-01-17T16:03:54.513Z,8.44
2023-01-17T16:06:30.709Z,8.45
2023-01-17T16:08:57.261Z,8.82
2023-01-17T16:11:23.670Z,8.30
2023-01-17T16:13:50.407Z,8.62
2023-01-17T16:16:24.934Z,8.89
2023-01-17T16:18:58.009Z,9.22
2023-01-17T16:21:26.599Z,9.01
2023-01-17T16:23:54.448Z,8.45
2023-01-17T16:26:21.607Z,8.97
2023-01-17T16:28:50.739Z,8.82
2023-01-17T16:31:18.191Z,8.75
2023-01-17T16:33:46.331Z,8.58
2023-01-17T16:36:18.613Z,8.67
2023-01-17T16:38:45.922Z,8.60
2023-01-17T16:41:13.500Z,8.84
2023-01-17T16:43:43.467Z,8.31
2023-01-17T16:46:11.941Z,8.19
2023-01-17T16:48:45.247Z,8.41
2023-01-17T16:51:13.682Z,7.55
2023-01-17T16:53:41.698Z,8.14
2023-01-17T16:56:12.352Z,7.75
2023-01-17T16:58:41.830Z,8.35
2023-01-17T17:01:16.603Z,7.60
2023-01-17T17:03:44.169Z,8.36
2023-01-17T17:06:11.990Z,8.50
2023-01-17T17:08:42.246Z,8.64
2023-01-17T17:11:09.590Z,8.22
2023-01-17T17:13:36.773Z,7.87
2023-01-17T17:16:09.301Z,7.84
2023-01-17T17:18:36.921Z,8.26
2023-01-17T17:21:04.030Z,8.14
2023-01-17T17:23:31.466Z,8.35
2023-01-17T17:26:01.207Z,8.27
2023-01-17T17:28:28.137Z,7.75
2023-01-17T17:31:02.360Z,8.12
2023-01-17T17:33:30.649Z,8.24
2023-01-17T17:36:01.855Z,7.92
2023-01-17T17:38:28.350Z,7.99
2023-01-17T17:40:55.181Z,7.69
2023-01-17T17:43:22.064Z,7.78
2023-01-17T17:45:50.089Z,7.88
2023-01-17T17:48:17.587Z,8.42
2023-01-17T17:50:44.250Z,8.36
2023-01-17T17:53:11.136Z,8.26
2023-01-17T17:55:40.169Z,8.22
2023-01-17T17:58:06.835Z,7.91
2023-01-17T18:00:33.889Z,7.86
2023-01-17T18:03:00.523Z,8.16
2023-01-17T18:05:27.136Z,8.01
2023-01-17T18:07:53.827Z,7.90
2023-01-17T18:10:20.649Z,8.29
2023-01-17T18:12:54.717Z,7.72
2023-01-17T18:15:24.172Z,7.89
2023-01-17T18:17:56.172Z,7.78
2023-01-17T18:20:22.953Z,7.59
2023-01-17T18:22:49.545Z,7.62
2023-01-17T18:25:16.495Z,7.27
2023-01-17T18:27:48.307Z,7.44
2023-01-17T18:30:14.784Z,7.03
2023-01-17T18:32:43.894Z,7.16
2023-01-17T18:35:11.735Z,7.06
2023-01-17T18:37:38.361Z,7.38
2023-01-17T18:40:05.381Z,7.57
2023-01-17T18:42:34.287Z,7.66
2023-01-17T18:45:01.204Z,7.54
2023-01-17T18:47:29.367Z,7.37
2023-01-17T18:49:55.933Z,7.34
2023-01-17T18:52:23.736Z,7.23
2023-01-17T18:54:50.777Z,6.93
2023-01-17T18:57:18.340Z,7.25
2023-01-17T18:59:44.829Z,7.10
2023-01-17T19:02:24.344Z,7.81
2023-01-17T19:04:50.820Z,7.63
2023-01-17T19:07:18.698Z,7.06
2023-01-17T19:09:46.763Z,7.28
2023-01-17T19:12:14.719Z,7.12
2023-01-17T19:14:44.043Z,7.31
2023-01-17T19:17:18.909Z,7.49
2023-01-17T19:19:45.609Z,7.43
2023-01-17T19:22:14.960Z,7.25
2023-01-17T19:24:41.856Z,7.27
2023-01-17T19:27:11.954Z,7.36
2023-01-17T19:29:39.795Z,7.51
2023-01-17T19:32:12.767Z,7.45
2023-01-17T19:34:40.525Z,7.09
2023-01-17T19:37:10.583Z,7.37
2023-01-17T19:39:46.578Z,7.34
2023-01-17T19:42:19.021Z,7.28
2023-01-17T19:44:52.971Z,7.03
2023-01-17T19:47:25.651Z,6.98
2023-01-17T19:49:54.255Z,7.44
2023-01-17T19:52:27.004Z,7.00
2023-01-17T19:54:59.936Z,6.88
2023-01-17T19:57:37.527Z,7.24
2023-01-17T20:00:24.049Z,7.31
2023-01-17T20:03:02.604Z,7.42
2023-01-17T20:05:35.541Z,7.30
2023-01-17T20:08:09.846Z,6.59
2023-01-17T20:10:37.258Z,6.96
2023-01-17T20:13:13.689Z,6.84
2023-01-17T20:15:41.183Z,6.91
2023-01-17T20:18:14.618Z,6.63
2023-01-17T20:20:56.578Z,6.95
2023-01-17T20:23:27.396Z,7.07
2023-01-17T20:26:00.697Z,7.17
2023-01-17T20:28:33.907Z,6.60
2023-01-17T20:31:08.657Z,6.69
2023-01-17T20:33:46.616Z,6.69
2023-01-17T20:36:20.172Z,6.81
2023-01-17T20:38:54.562Z,6.50
2023-01-17T20:41:26.458Z,6.22
2023-01-17T20:43:55.065Z,6.15
2023-01-17T20:46:24.981Z,7.16
2023-01-17T20:48:53.330Z,6.75
2023-01-17T20:51:20.706Z,6.93
2023-01-17T20:53:52.125Z,6.99
2023-01-17T20:56:19.450Z,6.48
2023-01-17T20:58:46.451Z,6.29
2023-01-17T21:01:20.973Z,6.61
2023-01-17T21:03:51.187Z,6.58
2023-01-17T21:06:22.560Z,6.88
2023-01-17T21:08:49.871Z,6.91
2023-01-17T21:11:18.130Z,6.79
2023-01-17T21:13:45.412Z,6.23
2023-01-17T21:16:14.239Z,6.18
2023-01-17T21:18:42.105Z,6.79
2023-01-17T21:21:11.569Z,6.65
2023-01-17T21:23:38.961Z,6.69
2023-01-17T21:26:06.015Z,6.61
2023-01-17T21:28:37.255Z,6.33
2023-01-17T21:31:29.098Z,6.40
2023-01-17T21:34:00.558Z,6.42
2023-01-17T21:36:28.532Z,6.55
2023-01-17T21:38:56.948Z,6.93
2023-01-17T21:41:26.035Z,5.96
2023-01-17T21:43:56.722Z,6.55
2023-01-17T21:46:23.910Z,6.56
2023-01-17T21:48:50.878Z,7.06
2023-01-17T21:51:19.375Z,6.67
2023-01-17T21:53:46.315Z,6.77
2023-01-17T21:56:32.531Z,7.22
2023-01-17T21:58:59.267Z,7.59
2023-01-17T22:01:27.694Z,7.16
2023-01-17T22:03:56.058Z,6.95
2023-01-17T22:06:23.936Z,6.99
2023-01-17T22:08:50.761Z,6.85
2023-01-17T22:11:20.376Z,6.80
2023-01-17T22:13:47.444Z,7.06
2023-01-17T22:16:15.172Z,6.38
2023-01-17T22:18:42.785Z,6.34
2023-01-17T22:21:13.932Z,6.16
2023-01-17T22:23:44.785Z,6.48
2023-01-17T22:26:11.876Z,5.84
2023-01-17T22:28:39.795Z,6.31
2023-01-17T22:31:13.864Z,6.57
2023-01-17T22:33:41.651Z,6.38
2023-01-17T22:36:09.196Z,5.99
2023-01-17T22:38:36.500Z,5.93
2023-01-17T22:41:07.820Z,6.02
2023-01-17T22:43:35.440Z,6.28
2023-01-17T22:46:02.082Z,6.10
2023-01-17T22:48:30.163Z,5.76
2023-01-17T22:50:58.116Z,5.65
2023-01-17T22:53:25.159Z,4.94
2023-01-17T22:56:01.590Z,5.69
2023-01-17T22:58:28.753Z,5.67
2023-01-17T23:00:57.754Z,6.11
2023-01-17T23:03:24.623Z,6.35
2023-01-17T23:05:51.272Z,5.59
2023-01-17T23:08:19.985Z,5.61
2023-01-17T23:11:05.300Z,5.25
2023-01-17T23:13:31.704Z,5.31
2023-01-17T23:16:17.037Z,5.38
2023-01-17T23:19:02.315Z,6.12
2023-01-17T23:21:48.897Z,5.70
2023-01-17T23:24:15.245Z,5.85
2023-01-17T23:27:01.913Z,5.46
2023-01-17T23:29:28.632Z,5.46
2023-01-17T23:31:55.205Z,5.76
2023-01-17T23:34:21.810Z,5.76
2023-01-17T23:36:48.847Z,5.49
2023-01-17T23:39:18.047Z,5.50
2023-01-17T23:42:03.431Z,5.87
2023-01-17T23:44:31.812Z,5.34
2023-01-17T23:47:01.322Z,5.42
2023-01-17T23:49:29.597Z,5.73
2023-01-17T23:51:56.223Z,6.10
2023-01-17T23:54:22.896Z,6.10
2023-01-17T23:56:49.416Z,6.02
2023-01-17T23:59:16.460Z,5.62
